Aviation Digital Data Service (ADDS)

Output produced by TAFs form (0922 UTC 23 October 2014)
found at http://aviationweather.gov/adds/tafs/
 
KELP 230540Z 2306/2406 02005KT P6SM SKC 
     FM231700 VRB05KT P6SM FEW250